Time;durP1;ratioP1;P1;durP2;ratioP2;P2;SDS_P1;SDS_P2;PMS_P1;PMS_P2;Temp;Humidity;BMP_temperature;BMP_pressure;BME280_temperature;BME280_humidity;BME280_pressure;Samples;Min_cycle;Max_cycle;Signal;HPM_P1;HPM_P2
2023/12/18 00:00:14;;;;;;;7.90;7.70;;;;;;;-141.02;100.00;42166.00;5115256;28;20193;-66
2023/12/18 00:02:42;;;;;;;8.10;7.90;;;;;;;-141.02;100.00;42286.94;5116077;28;20194;-67
2023/12/18 00:05:09;;;;;;;7.27;7.07;;;;;;;-141.02;100.00;42390.59;5116258;28;20197;-67
2023/12/18 00:07:37;;;;;;;8.17;7.97;;;;;;;-141.02;100.00;42501.91;5115929;28;20215;-67
2023/12/18 00:10:08;;;;;;;8.20;8.00;;;;;;;-141.02;100.00;42653.56;5115966;28;20663;-67
2023/12/18 00:12:36;;;;;;;7.27;7.07;;;;;;;-141.02;100.00;42713.06;5116138;28;20194;-68
2023/12/18 00:15:03;;;;;;;8.07;7.87;;;;;;;-141.02;100.00;42824.41;5116193;28;20190;-65
2023/12/18 00:17:30;;;;;;;7.70;7.50;;;;;;;-141.02;100.00;42774.50;5116139;28;20235;-66
2023/12/18 00:19:57;;;;;;;7.73;7.53;;;;;;;-141.02;100.00;42730.34;5116048;27;20193;-67
2023/12/18 00:22:24;;;;;;;8.10;7.90;;;;;;;-141.02;100.00;42546.06;5116085;28;20228;-65
2023/12/18 00:24:52;;;;;;;7.90;7.70;;;;;;;-141.02;100.00;42571.03;5115936;28;20276;-67
2023/12/18 00:27:19;;;;;;;7.97;7.77;;;;;;;-141.02;100.00;42582.53;5115931;28;20199;-67
2023/12/18 00:29:46;;;;;;;7.57;7.37;;;;;;;-141.02;100.00;42551.81;5116779;28;20276;-67
2023/12/18 00:32:13;;;;;;;7.67;7.47;;;;;;;-141.02;100.00;42563.34;5115838;28;20197;-67
2023/12/18 00:34:41;;;;;;;7.50;7.30;;;;;;;-141.02;100.00;42613.25;5115839;28;20555;-67
2023/12/18 00:37:08;;;;;;;7.27;7.07;;;;;;;-141.02;100.00;42755.31;5115859;28;20224;-68
2023/12/18 00:39:35;;;;;;;7.17;6.97;;;;;;;-141.02;100.00;42839.78;5115754;28;20194;-66
2023/12/18 00:42:04;;;;;;;7.70;7.50;;;;;;;-141.02;100.00;42795.63;5115763;28;20276;-66
2023/12/18 00:44:31;;;;;;;7.40;7.20;;;;;;;-141.02;100.00;42782.19;5115666;28;20200;-66
2023/12/18 00:46:58;;;;;;;7.43;7.23;;;;;;;-141.02;100.00;42809.06;5116160;28;20201;-66
2023/12/18 00:49:27;;;;;;;7.27;7.07;;;;;;;-141.02;100.00;42931.94;5115547;28;20200;-67
2023/12/18 00:51:54;;;;;;;7.50;7.30;;;;;;;-141.02;100.00;43166.16;5115236;28;20205;-67
2023/12/18 00:54:22;;;;;;;7.40;7.20;;;;;;;-141.02;100.00;43331.28;5115196;28;20196;-67
2023/12/18 00:56:48;;;;;;;7.57;7.37;;;;;;;-141.02;100.00;43392.72;5114988;28;20239;-67
2023/12/18 00:59:17;;;;;;;7.50;7.30;;;;;;;-141.02;100.00;43469.50;5115256;28;20199;-68
2023/12/18 01:01:44;;;;;;;7.30;7.10;;;;;;;-141.02;100.00;43431.13;5115003;28;20205;-67
2023/12/18 01:04:11;;;;;;;7.73;7.53;;;;;;;-141.02;100.00;43711.47;5115261;27;20189;-66
2023/12/18 01:06:39;;;;;;;7.50;7.30;;;;;;;-141.02;100.00;43653.84;5115024;28;20193;-66
2023/12/18 01:09:06;;;;;;;7.40;7.20;;;;;;;-141.02;100.00;43696.09;5115995;28;20284;-67
2023/12/18 01:11:33;;;;;;;7.60;7.40;;;;;;;-141.02;100.00;43711.47;5113416;28;20710;-66
2023/12/18 01:14:00;;;;;;;7.63;7.43;;;;;;;-141.02;100.00;43792.09;5115032;28;20201;-66
2023/12/18 01:16:28;;;;;;;7.33;7.13;;;;;;;-141.02;100.00;43953.41;5114924;28;20220;-67
2023/12/18 01:18:55;;;;;;;6.70;6.50;;;;;;;-141.02;100.00;44156.97;5114872;28;20223;-66
2023/12/18 01:21:22;;;;;;;6.70;6.50;;;;;;;-141.02;100.00;44698.59;5114620;28;20679;-67
2023/12/18 01:23:49;;;;;;;6.70;6.50;;;;;;;-141.02;100.00;44748.56;5114515;28;20193;-66
2023/12/18 01:26:16;;;;;;;7.30;7.10;;;;;;;-141.02;100.00;44752.38;5114494;28;20655;-67
2023/12/18 01:28:44;;;;;;;7.47;7.27;;;;;;;-141.02;100.00;44619.84;5114668;28;20287;-67
2023/12/18 01:31:21;;;;;;;6.93;6.73;;;;;;;-141.02;100.00;44141.63;5114624;28;20199;-67
2023/12/18 01:33:50;;;;;;;7.30;7.10;;;;;;;-141.02;100.00;44126.25;5114416;28;20666;-67
2023/12/18 01:36:17;;;;;;;6.80;6.60;;;;;;;-141.02;100.00;44022.56;5114237;28;20200;-67
2023/12/18 01:38:44;;;;;;;7.50;7.30;;;;;;;-141.02;100.00;43682.66;5114290;28;20633;-67
2023/12/18 01:41:11;;;;;;;8.03;7.83;;;;;;;-141.02;100.00;43427.28;5114073;28;20681;-66
2023/12/18 01:43:38;;;;;;;7.93;7.73;;;;;;;-141.02;100.00;43244.88;5114381;28;20189;-67
2023/12/18 01:46:06;;;;;;;7.77;7.57;;;;;;;-141.02;100.00;43373.50;5114030;28;20203;-67
2023/12/18 01:48:34;;;;;;;7.90;7.70;;;;;;;-141.02;100.00;43404.22;5114020;28;20201;-66
2023/12/18 01:51:03;;;;;;;7.27;7.07;;;;;;;-141.02;100.00;43542.47;5114015;28;20193;-66
2023/12/18 01:53:33;;;;;;;7.30;7.10;;;;;;;-141.02;100.00;43765.22;5114251;28;20193;-67
2023/12/18 01:56:01;;;;;;;6.43;6.23;;;;;;;-141.02;100.00;43961.09;5113716;28;20243;-65
2023/12/18 01:58:29;;;;;;;6.50;6.30;;;;;;;-141.02;100.00;44243.41;5114034;28;20232;-67
2023/12/18 02:00:56;;;;;;;6.00;5.90;;;;;;;-141.02;100.00;44510.38;5113749;28;20193;-66
2023/12/18 02:03:24;;;;;;;5.80;5.70;;;;;;;-141.02;100.00;44514.22;5114058;28;20578;-68
2023/12/18 02:05:51;;;;;;;6.20;6.10;;;;;;;-141.02;100.00;44483.47;5114192;28;20194;-67
2023/12/18 02:08:20;;;;;;;6.60;6.40;;;;;;;-141.02;100.00;44487.31;5114014;28;20201;-64
2023/12/18 02:10:47;;;;;;;6.00;5.90;;;;;;;-141.02;100.00;44685.16;5113753;28;20279;-66
2023/12/18 02:13:14;;;;;;;5.70;5.60;;;;;;;-141.02;100.00;44929.13;5113946;28;20569;-66
2023/12/18 02:15:41;;;;;;;5.80;5.70;;;;;;;-141.02;100.00;45165.41;5113810;28;20201;-66
2023/12/18 02:18:08;;;;;;;5.67;5.57;;;;;;;-141.02;100.00;45470.88;5113598;28;20221;-66
2023/12/18 02:20:35;;;;;;;5.60;5.50;;;;;;;-141.02;100.00;45591.91;5114038;28;20201;-66
2023/12/18 02:23:03;;;;;;;5.97;5.87;;;;;;;-141.02;100.00;45722.56;5113256;28;20685;-65
2023/12/18 02:25:31;;;;;;;5.67;5.57;;;;;;;-141.02;100.00;45866.66;5113717;28;20573;-66
2023/12/18 02:27:58;;;;;;;5.90;5.80;;;;;;;-141.02;100.00;45780.19;5113260;28;20197;-67
2023/12/18 02:30:25;;;;;;;5.50;5.40;;;;;;;-141.02;100.00;45693.75;5113636;28;20203;-66
2023/12/18 02:32:53;;;;;;;5.87;5.77;;;;;;;-141.02;100.00;45757.16;5113187;28;20210;-66
2023/12/18 02:35:20;;;;;;;6.03;5.93;;;;;;;-141.02;100.00;45543.88;5113492;28;20193;-66
2023/12/18 02:37:47;;;;;;;6.10;6.00;;;;;;;-141.02;100.00;45297.94;5113078;28;20231;-66
2023/12/18 02:40:15;;;;;;;6.33;6.20;;;;;;;-141.02;100.00;45117.38;5113338;28;20193;-66
2023/12/18 02:42:42;;;;;;;6.87;6.67;;;;;;;-141.02;100.00;44879.16;5113429;28;20205;-67
2023/12/18 02:45:10;;;;;;;6.77;6.57;;;;;;;-141.02;100.00;44725.50;5113264;28;20196;-67
2023/12/18 02:47:37;;;;;;;6.90;6.70;;;;;;;-141.02;100.00;44886.84;5113225;28;20698;-67
2023/12/18 02:50:06;;;;;;;6.90;6.70;;;;;;;-141.02;100.00;44779.28;5113270;28;20255;-66
2023/12/18 02:52:33;;;;;;;7.00;6.80;;;;;;;-141.02;100.00;44840.75;5113193;28;20220;-66
2023/12/18 02:55:00;;;;;;;7.00;6.80;;;;;;;-141.02;100.00;44713.97;5113191;28;20195;-66
2023/12/18 02:57:28;;;;;;;7.57;7.37;;;;;;;-141.02;100.00;44694.75;5113393;28;20592;-65
2023/12/18 02:59:55;;;;;;;6.90;6.70;;;;;;;-141.02;100.00;44706.28;5112739;28;20633;-67
2023/12/18 03:02:22;;;;;;;6.53;6.33;;;;;;;-141.02;100.00;44737.03;5113021;28;20554;-67
2023/12/18 03:04:49;;;;;;;6.90;6.70;;;;;;;-141.02;100.00;44969.44;5112759;28;20199;-67
2023/12/18 03:07:17;;;;;;;6.77;6.57;;;;;;;-141.02;100.00;45144.25;5112645;28;20207;-66
2023/12/18 03:09:44;;;;;;;6.57;6.37;;;;;;;-141.02;100.00;45417.06;5112925;28;20195;-67
2023/12/18 03:12:11;;;;;;;6.90;6.70;;;;;;;-141.02;100.00;45712.94;5112892;28;20677;-65
2023/12/18 03:14:39;;;;;;;7.50;7.30;;;;;;;-141.02;100.00;45759.06;5112449;28;20199;-67
2023/12/18 03:17:06;;;;;;;6.87;6.67;;;;;;;-141.02;100.00;45791.72;5112487;28;20228;-67
2023/12/18 03:19:33;;;;;;;7.60;7.40;;;;;;;-141.02;100.00;45945.44;5112768;28;20193;-66
2023/12/18 03:22:00;;;;;;;7.00;6.80;;;;;;;-141.02;100.00;46089.56;5112467;28;20250;-66
2023/12/18 03:24:27;;;;;;;6.37;6.23;;;;;;;-141.02;100.00;46216.38;5112999;28;20193;-67
2023/12/18 03:26:54;;;;;;;6.80;6.60;;;;;;;-141.02;100.00;46377.81;5112360;28;20207;-66
2023/12/18 03:29:21;;;;;;;6.70;6.50;;;;;;;-141.02;100.00;46441.22;5112725;28;20189;-67
2023/12/18 03:31:49;;;;;;;5.90;5.80;;;;;;;-141.02;100.00;46208.72;5112702;28;20277;-67
2023/12/18 03:34:16;;;;;;;6.90;6.70;;;;;;;-141.02;100.00;46066.50;5113679;28;20596;-66
2023/12/18 03:36:43;;;;;;;7.20;7.00;;;;;;;-141.02;100.00;45874.34;5116896;28;20199;-67
2023/12/18 03:39:10;;;;;;;7.00;6.80;;;;;;;-141.02;100.00;45697.56;5116466;28;20229;-66
2023/12/18 03:41:36;;;;;;;6.97;6.77;;;;;;;-141.02;100.00;45766.75;5116545;28;20199;-67
2023/12/18 03:44:03;;;;;;;6.60;6.40;;;;;;;-141.02;100.00;46060.75;5116984;28;20196;-67
2023/12/18 03:46:30;;;;;;;6.80;6.60;;;;;;;-141.02;100.00;46189.50;5116775;28;20193;-67
2023/12/18 03:48:59;;;;;;;6.40;6.20;;;;;;;-141.02;100.00;46224.06;5117009;28;20192;-66
2023/12/18 03:51:26;;;;;;;6.07;5.97;;;;;;;-141.02;100.00;45941.59;5116642;28;20290;-67
2023/12/18 03:53:52;;;;;;;5.50;5.40;;;;;;;-141.02;100.00;45724.47;5116628;28;20200;-67
2023/12/18 03:56:19;;;;;;;5.40;5.30;;;;;;;-141.02;100.00;45486.22;5116224;28;20311;-65
2023/12/18 03:58:46;;;;;;;5.70;5.60;;;;;;;-141.02;100.00;45482.38;5116112;28;20225;-67
2023/12/18 04:01:13;;;;;;;5.27;5.17;;;;;;;-141.02;100.00;45271.06;5116191;28;20197;-66
2023/12/18 04:03:40;;;;;;;5.83;5.73;;;;;;;-141.02;100.00;45321.00;5116672;28;20193;-66
2023/12/18 04:06:10;;;;;;;5.40;5.30;;;;;;;-141.02;100.00;45063.59;5116114;28;20283;-67
2023/12/18 04:08:39;;;;;;;6.17;6.07;;;;;;;-141.02;100.00;44802.34;5116292;28;20581;-67
2023/12/18 04:11:06;;;;;;;6.07;5.97;;;;;;;-141.02;100.00;44583.38;5115983;28;20201;-66
2023/12/18 04:13:33;;;;;;;5.90;5.80;;;;;;;-141.02;100.00;44644.81;5116163;28;20296;-67
2023/12/18 04:15:59;;;;;;;6.70;6.50;;;;;;;-141.02;100.00;44886.84;5115929;28;20189;-67
2023/12/18 04:18:26;;;;;;;6.50;6.30;;;;;;;-141.02;100.00;44904.13;5115785;28;20235;-66
2023/12/18 04:20:53;;;;;;;6.00;5.90;;;;;;;-141.02;100.00;45188.44;5116070;28;20189;-67
2023/12/18 04:23:22;;;;;;;6.30;6.20;;;;;;;-141.02;100.00;44883.00;5115760;28;20195;-67
2023/12/18 04:25:49;;;;;;;6.20;6.10;;;;;;;-141.02;100.00;45017.47;5115985;28;20197;-66
2023/12/18 04:28:15;;;;;;;6.20;6.10;;;;;;;-141.02;100.00;44746.63;5116035;28;20197;-66
2023/12/18 04:30:42;;;;;;;6.10;6.00;;;;;;;-141.02;100.00;44414.34;5115620;28;20664;-67
2023/12/18 04:33:09;;;;;;;6.67;6.47;;;;;;;-141.02;100.00;44295.25;5115539;28;20609;-67
2023/12/18 04:35:36;;;;;;;6.07;5.97;;;;;;;-141.02;100.00;44276.06;5115517;28;20702;-66
2023/12/18 04:38:03;;;;;;;6.03;5.93;;;;;;;-141.02;100.00;44306.78;5115345;28;20790;-66
2023/12/18 04:40:32;;;;;;;5.30;5.20;;;;;;;-141.02;100.00;44028.31;5115784;28;20189;-66
2023/12/18 04:42:59;;;;;;;5.30;5.20;;;;;;;-141.02;100.00;44049.44;5115376;28;20284;-66
2023/12/18 04:45:26;;;;;;;5.07;4.97;;;;;;;-141.02;100.00;44095.53;5115320;28;20196;-66
2023/12/18 04:47:53;;;;;;;5.30;5.20;;;;;;;-141.02;100.00;43918.84;5115285;28;20205;-67
2023/12/18 04:50:20;;;;;;;5.33;5.23;;;;;;;-141.02;100.00;43842.03;5115186;28;20200;-66
2023/12/18 04:52:46;;;;;;;5.70;5.60;;;;;;;-141.02;100.00;43832.44;5115494;28;20193;-67
2023/12/18 04:55:13;;;;;;;5.40;5.30;;;;;;;-141.02;100.00;43703.78;5115157;28;20727;-67
2023/12/18 04:57:42;;;;;;;5.00;4.90;;;;;;;-141.02;100.00;44003.34;5114926;28;20245;-67
2023/12/18 05:00:09;;;;;;;6.00;5.90;;;;;;;-141.02;100.00;43924.63;5115399;28;20280;-66
2023/12/18 05:02:37;;;;;;;5.83;5.73;;;;;;;-141.02;100.00;43865.09;5114935;28;20197;-67
2023/12/18 05:05:05;;;;;;;6.97;6.77;;;;;;;-141.02;100.00;43619.28;5115343;28;20197;-66
2023/12/18 05:07:32;;;;;;;7.10;6.90;;;;;;;-141.02;100.00;43692.25;5114942;28;20196;-64
2023/12/18 05:09:58;;;;;;;6.30;6.20;;;;;;;-141.02;100.00;43722.97;5114866;28;20193;-65
2023/12/18 05:12:26;;;;;;;6.33;6.23;;;;;;;-141.02;100.00;43507.91;5115089;28;20193;-66
2023/12/18 05:14:54;;;;;;;7.00;6.80;;;;;;;-141.02;100.00;43400.38;5114952;28;20736;-66
2023/12/18 05:17:21;;;;;;;6.80;6.60;;;;;;;-141.02;100.00;43237.19;5114698;28;20193;-65
2023/12/18 05:19:48;;;;;;;6.50;6.30;;;;;;;-141.02;100.00;43446.47;5114921;28;20189;-67
2023/12/18 05:22:15;;;;;;;6.10;6.00;;;;;;;-141.02;100.00;43484.88;5114719;28;20664;-64
2023/12/18 05:24:42;;;;;;;6.23;6.13;;;;;;;-141.02;100.00;43544.41;5114847;28;20189;-67
2023/12/18 05:27:09;;;;;;;6.90;6.70;;;;;;;-141.02;100.00;43529.03;5114583;28;20571;-66
2023/12/18 05:29:36;;;;;;;7.10;6.90;;;;;;;-141.02;100.00;43596.25;5114539;28;20201;-66
2023/12/18 05:32:05;;;;;;;6.53;6.33;;;;;;;-141.02;100.00;43769.06;5114958;28;20189;-66
2023/12/18 05:34:31;;;;;;;5.60;5.50;;;;;;;-141.02;100.00;43918.84;5114493;28;20204;-66
2023/12/18 05:36:58;;;;;;;5.90;5.80;;;;;;;-141.02;100.00;44062.88;5114563;28;20216;-66
2023/12/18 05:39:25;;;;;;;5.73;5.63;;;;;;;-141.02;100.00;44410.50;5114522;28;20229;-66
2023/12/18 05:41:52;;;;;;;5.30;5.20;;;;;;;-141.02;100.00;44790.81;5114631;28;20197;-64
2023/12/18 05:44:19;;;;;;;6.27;6.17;;;;;;;-141.02;100.00;44859.97;5114491;28;20197;-66
2023/12/18 05:46:46;;;;;;;6.20;6.10;;;;;;;-141.02;100.00;44892.63;5114477;28;20671;-66
2023/12/18 05:49:15;;;;;;;6.67;6.47;;;;;;;-141.02;100.00;44894.53;5114056;28;20288;-65
2023/12/18 05:51:41;;;;;;;6.70;6.50;;;;;;;-141.02;100.00;45121.22;5114284;28;20283;-66
2023/12/18 05:54:08;;;;;;;7.07;6.87;;;;;;;-141.02;100.00;45405.53;5114317;28;20193;-67
2023/12/18 05:56:35;;;;;;;7.53;7.33;;;;;;;-141.02;100.00;45912.78;5113505;28;20240;-67
2023/12/18 05:59:01;;;;;;;7.40;7.20;;;;;;;-141.02;100.00;46320.16;5113845;27;20302;-67
2023/12/18 06:01:28;;;;;;;7.30;7.10;;;;;;;-141.02;100.00;46400.88;5113845;28;20205;-67
2023/12/18 06:03:56;;;;;;;7.87;7.67;;;;;;;-141.02;100.00;46435.47;5114051;28;20288;-66
2023/12/18 06:06:24;;;;;;;7.97;7.77;;;;;;;-141.02;100.00;46554.63;5113711;28;20207;-65
2023/12/18 06:08:51;;;;;;;7.80;7.60;;;;;;;-141.02;100.00;46800.63;5113998;28;20204;-67
2023/12/18 06:11:18;;;;;;;7.33;7.13;;;;;;;-141.02;100.00;47244.66;5113675;28;20597;-66
2023/12/18 06:13:45;;;;;;;7.80;7.60;;;;;;;-141.02;100.00;47525.31;5113929;28;20207;-67
2023/12/18 06:16:11;;;;;;;7.80;7.60;;;;;;;-141.02;100.00;47761.78;5113566;28;20200;-67
2023/12/18 06:18:39;;;;;;;6.90;6.70;;;;;;;-141.02;100.00;48302.06;5113398;28;20592;-66
2023/12/18 06:21:06;;;;;;;6.83;6.63;;;;;;;-141.02;100.00;48696.25;5113491;28;20283;-67
2023/12/18 06:23:35;;;;;;;7.00;6.80;;;;;;;-141.02;100.00;49355.94;5113919;28;20203;-65
2023/12/18 06:26:02;;;;;;;6.63;6.43;;;;;;;-141.02;100.00;50325.50;5113600;28;20196;-66
2023/12/18 06:28:28;;;;;;;6.00;5.90;;;;;;;-141.02;100.00;51170.25;5113696;28;20225;-67
2023/12/18 06:30:55;;;;;;;6.23;6.13;;;;;;;-141.02;100.00;52217.34;5113540;28;20192;-67
2023/12/18 06:33:22;;;;;;;6.50;6.30;;;;;;;-141.02;100.00;53719.25;5113606;28;20199;-66
2023/12/18 06:35:49;;;;;;;5.80;5.70;;;;;;;-141.02;100.00;54239.31;5113467;28;20744;-66
2023/12/18 06:38:16;;;;;;;7.50;7.30;;;;;;;-141.02;100.00;54156.47;5113368;28;20609;-66
2023/12/18 06:40:44;;;;;;;7.77;7.57;;;;;;;-141.02;100.00;55063.84;5113460;28;20193;-66
2023/12/18 06:43:11;;;;;;;6.73;6.53;;;;;;;-141.02;100.00;55695.84;5113595;28;20289;-67
2023/12/18 06:45:38;;;;;;;7.30;7.10;;;;;;;-141.02;100.00;55695.84;5113014;28;20655;-66
2023/12/18 06:48:06;;;;;;;7.33;7.13;;;;;;;-141.02;100.00;55796.06;5112934;28;20746;-67
2023/12/18 06:50:33;;;;;;;7.47;7.27;;;;;;;-141.02;100.00;54851.91;5112945;28;20698;-67
2023/12/18 06:53:01;;;;;;;6.70;6.50;;;;;;;-141.02;100.00;54873.09;5112978;28;20195;-66
2023/12/18 06:55:28;;;;;;;7.30;7.10;;;;;;;-141.02;100.00;55150.53;5113088;28;20207;-67
2023/12/18 06:57:57;;;;;;;7.40;7.20;;;;;;;-141.02;100.00;55418.38;5072165;28;20198;-67
2023/12/18 07:00:25;;;;;;;7.17;6.97;;;;;;;-141.02;100.00;55333.59;5072152;28;20234;-66
2023/12/18 07:02:52;;;;;;;7.30;7.10;;;;;;;-141.02;100.00;55826.91;5072413;28;20661;-67
2023/12/18 07:05:19;;;;;;;7.50;7.30;;;;;;;-141.02;100.00;56328.00;5072409;28;20222;-67
2023/12/18 07:07:46;;;;;;;7.80;7.60;;;;;;;-141.02;100.00;56971.81;5072438;28;20210;-67
2023/12/18 07:10:13;;;;;;;6.77;6.57;;;;;;;-141.02;100.00;56782.91;5072246;28;20203;-67
2023/12/18 07:12:40;;;;;;;7.10;6.90;;;;;;;-141.02;100.00;56752.06;5072333;28;20191;-67
2023/12/18 07:15:09;;;;;;;6.47;6.27;;;;;;;-141.02;100.00;56538.09;5072373;28;20190;-66
2023/12/18 07:17:36;;;;;;;7.20;7.00;;;;;;;-141.02;100.00;56154.53;5071933;28;20290;-66
2023/12/18 07:20:05;;;;;;;10.13;9.83;;;;;;;-141.02;100.00;56054.31;5072733;28;20314;-66
2023/12/18 07:22:33;;;;;;;10.03;9.73;;;;;;;-141.02;100.00;54624.56;5072268;28;20202;-67
2023/12/18 07:25:00;;;;;;;8.00;7.80;;;;;;;-141.02;100.00;53925.34;5072177;28;20202;-66
2023/12/18 07:27:27;;;;;;;8.73;8.53;;;;;;;-141.02;100.00;52483.03;5072135;28;20237;-66
2023/12/18 07:29:54;;;;;;;9.40;9.10;;;;;;;-141.02;100.00;52082.59;5071769;28;20642;-66
2023/12/18 07:32:23;;;;;;;9.67;9.37;;;;;;;-141.02;100.00;52798.78;5071865;28;20198;-66
2023/12/18 07:34:50;;;;;;;9.90;9.60;;;;;;;-141.02;100.00;52436.81;5071811;28;20194;-66
2023/12/18 07:37:17;;;;;;;10.80;10.50;;;;;;;-141.02;100.00;51759.22;5072085;28;20201;-66
2023/12/18 07:39:44;;;;;;;11.67;11.27;;;;;;;-141.02;100.00;51079.81;5071690;28;20318;-67
2023/12/18 07:42:10;;;;;;;12.13;11.73;;;;;;;-141.02;100.00;50850.81;5071992;28;20274;-67
2023/12/18 07:44:37;;;;;;;11.47;11.07;;;;;;;-141.02;100.00;49548.31;5072008;28;20277;-67
2023/12/18 07:47:06;;;;;;;11.60;11.20;;;;;;;-141.02;100.00;49092.44;5071950;28;20281;-67
2023/12/18 07:49:36;;;;;;;12.90;12.50;;;;;;;-141.02;100.00;48027.09;5071709;28;20233;-67
2023/12/18 07:52:03;;;;;;;12.60;12.20;;;;;;;-141.02;100.00;47331.16;5071652;28;20202;-68
2023/12/18 07:54:30;;;;;;;15.93;15.33;;;;;;;-141.02;100.00;46256.75;5071898;28;20198;-68
2023/12/18 07:56:57;;;;;;;15.50;14.90;;;;;;;-141.02;100.00;45413.22;5096421;28;20224;-68
2023/12/18 07:59:24;;;;;;;15.80;15.20;;;;;;;-141.02;100.00;45144.25;5112315;28;20233;-67
2023/12/18 08:01:51;;;;;;;14.30;13.80;;;;;;;-141.02;100.00;45032.84;5112309;28;20284;-67
2023/12/18 08:04:18;;;;;;;14.60;14.10;;;;;;;-141.02;100.00;44956.00;5112101;28;20197;-67
2023/12/18 08:06:47;;;;;;;15.80;15.20;;;;;;;-141.02;100.00;44329.84;5112583;28;20232;-67
2023/12/18 08:09:14;;;;;;;16.33;15.73;;;;;;;-141.02;100.00;44487.31;5111941;28;20624;-67
2023/12/18 08:11:41;;;;;;;16.67;16.07;;;;;;;-141.02;100.00;44485.41;5111904;28;20231;-67
2023/12/18 08:14:09;;;;;;;16.17;15.57;;;;;;;-141.02;100.00;44975.22;5111983;28;20189;-68
2023/12/18 08:16:36;;;;;;;16.47;15.87;;;;;;;-141.02;100.00;44950.25;5111849;28;20193;-68
2023/12/18 08:19:03;;;;;;;16.60;16.00;;;;;;;-141.02;100.00;45082.78;5112106;28;20274;-69
2023/12/18 08:21:30;;;;;;;16.97;16.33;;;;;;;-141.02;100.00;45309.47;5115035;28;20208;-69
2023/12/18 08:23:58;;;;;;;17.50;16.80;;;;;;;-141.02;100.00;45394.00;5116039;28;20201;-69
2023/12/18 08:26:26;;;;;;;18.67;17.87;;;;;;;-141.02;100.00;45271.06;5115958;28;20196;-69
2023/12/18 08:28:53;;;;;;;18.63;17.83;;;;;;;-141.02;100.00;45088.56;5115572;28;20258;-69
2023/12/18 08:31:21;;;;;;;20.57;19.67;;;;;;;-141.02;100.00;44544.94;5115624;28;20201;-71
2023/12/18 08:33:48;;;;;;;20.13;19.23;;;;;;;-141.02;100.00;44790.81;5115842;28;20251;-72
2023/12/18 08:36:15;;;;;;;17.80;17.10;;;;;;;-141.02;100.00;45274.91;5115615;28;20199;-73
2023/12/18 08:38:42;;;;;;;17.83;17.13;;;;;;;-141.02;100.00;45918.53;5115671;28;20336;-74
2023/12/18 08:41:10;;;;;;;18.57;17.77;;;;;;;-141.02;100.00;45751.38;5115434;28;20288;-76
2023/12/18 08:43:37;;;;;;;20.93;19.93;;;;;;;-141.02;100.00;44646.75;5115690;28;20229;-75
2023/12/18 08:46:04;;;;;;;20.43;19.53;;;;;;;-141.02;100.00;44496.94;5115834;28;20222;-76
2023/12/18 08:48:31;;;;;;;20.53;19.63;;;;;;;-141.02;100.00;44608.34;5115578;28;20232;-73
2023/12/18 08:50:58;;;;;;;21.83;20.83;;;;;;;-141.02;100.00;44575.69;5115217;28;20280;-70
2023/12/18 08:53:28;;;;;;;18.37;17.57;;;;;;;-141.02;100.00;44675.56;5115417;28;20793;-70
2023/12/18 08:55:55;;;;;;;16.07;15.47;;;;;;;-141.02;100.00;44854.19;5115172;28;20691;-70
2023/12/18 08:58:25;;;;;;;16.47;15.87;;;;;;;-141.02;100.00;44890.69;5115010;28;20197;-72
2023/12/18 09:00:52;;;;;;;17.00;16.37;;;;;;;-141.02;100.00;44610.25;5115424;28;20220;-70
2023/12/18 09:03:21;;;;;;;16.57;15.97;;;;;;;-141.02;100.00;45082.78;5115271;28;20333;-70
2023/12/18 09:05:48;;;;;;;15.97;15.37;;;;;;;-141.02;100.00;45338.31;5115253;28;20193;-69
2023/12/18 09:08:14;;;;;;;16.53;15.93;;;;;;;-141.02;100.00;45641.84;5115185;28;20571;-69
2023/12/18 09:10:41;;;;;;;19.33;18.53;;;;;;;-141.02;100.00;44656.34;5114756;28;20697;-69
2023/12/18 09:13:08;;;;;;;18.43;17.70;;;;;;;-141.02;100.00;44598.72;5115133;28;20201;-70
2023/12/18 09:15:40;;;;;;;18.03;17.23;;;;;;;-141.02;100.00;44640.97;5114983;28;20193;-68
2023/12/18 09:18:07;;;;;;;17.50;16.80;;;;;;;-141.02;100.00;45148.09;5114719;28;20188;-69
2023/12/18 09:20:34;;;;;;;19.77;18.97;;;;;;;-141.02;100.00;45536.19;5114501;28;20229;-69
2023/12/18 09:23:05;;;;;;;18.20;17.40;;;;;;;-141.02;100.00;44283.75;5114593;28;20634;-69
2023/12/18 09:25:32;;;;;;;13.87;13.37;;;;;;;-141.02;100.00;44151.22;5114905;28;20208;-69
2023/12/18 09:27:59;;;;;;;13.70;13.30;;;;;;;-141.02;100.00;44068.63;5114507;28;20276;-70
2023/12/18 09:30:25;;;;;;;11.37;11.07;;;;;;;-141.02;100.00;44312.53;5114485;28;20197;-70
2023/12/18 09:32:54;;;;;;;11.80;11.40;;;;;;;-141.02;100.00;44041.75;5113626;28;20284;-70
2023/12/18 09:35:21;;;;;;;12.03;11.63;;;;;;;-141.02;100.00;43838.19;5114727;28;20261;-70
2023/12/18 09:37:48;;;;;;;12.60;12.20;;;;;;;-141.02;100.00;43684.56;5114775;28;20240;-71
2023/12/18 09:40:15;;;;;;;12.73;12.33;;;;;;;-141.02;100.00;43834.34;5114510;28;20224;-72
2023/12/18 09:42:42;;;;;;;12.50;12.10;;;;;;;-141.02;100.00;43822.84;5114817;28;20207;-72
2023/12/18 09:45:10;;;;;;;13.33;12.83;;;;;;;-141.02;100.00;43853.56;5114163;28;20355;-73
2023/12/18 09:47:37;;;;;;;13.73;13.23;;;;;;;-141.02;100.00;44041.75;5114568;27;20189;-73
2023/12/18 09:50:08;;;;;;;14.07;13.57;;;;;;;-141.02;100.00;43945.72;5114344;28;20280;-73
2023/12/18 09:52:40;;;;;;;15.50;14.80;;;;;;;-141.02;100.00;43843.97;5113996;28;20281;-74
2023/12/18 09:55:08;;;;;;;19.33;18.33;;;;;;;-141.02;100.00;43655.78;5114334;28;20220;-74
2023/12/18 09:57:36;;;;;;;19.20;18.10;;;;;;;-141.02;100.00;43638.50;5114088;28;20319;-75
2023/12/18 10:00:06;;;;;;;24.40;23.00;;;;;;;-141.02;100.00;43517.50;5114158;28;20228;-75
2023/12/18 10:02:34;;;;;;;20.10;18.90;;;;;;;-141.02;100.00;43507.91;5113790;28;20634;-74
2023/12/18 10:05:00;;;;;;;18.90;17.70;;;;;;;-141.02;100.00;43605.84;5113838;28;20235;-74
2023/12/18 10:07:29;;;;;;;19.10;17.80;;;;;;;-141.02;100.00;43515.59;5114016;28;20288;-73
2023/12/18 10:09:57;;;;;;;20.07;18.67;;;;;;;-141.02;100.00;43411.91;5113700;28;20686;-73
2023/12/18 10:12:25;;;;;;;19.83;18.53;;;;;;;-141.02;100.00;43711.47;5113888;28;20296;-73
2023/12/18 10:14:52;;;;;;;21.13;19.73;;;;;;;-141.02;100.00;43388.88;5113666;28;20201;-72
2023/12/18 10:17:20;;;;;;;26.83;25.17;;;;;;;-141.02;100.00;43561.69;5113626;28;20198;-72
2023/12/18 10:19:47;;;;;;;21.60;20.20;;;;;;;-141.02;100.00;43626.97;5113356;28;20694;-72
2023/12/18 10:22:14;;;;;;;21.10;19.70;;;;;;;-141.02;100.00;43636.56;5113486;28;20203;-72
2023/12/18 10:24:43;;;;;;;21.10;19.70;;;;;;;-141.02;100.00;43820.91;5113383;28;20201;-72
2023/12/18 10:27:10;;;;;;;21.10;19.40;;;;;;;-141.02;100.00;43586.66;5113725;28;20194;-72
2023/12/18 10:29:37;;;;;;;19.53;18.03;;;;;;;-141.02;100.00;43538.63;5113669;28;20197;-72
2023/12/18 10:32:05;;;;;;;19.40;17.90;;;;;;;-141.02;100.00;43534.78;5113452;28;20189;-72
2023/12/18 10:34:36;;;;;;;29.80;27.70;;;;;;;-141.02;100.00;43484.88;5113567;28;20276;-73
2023/12/18 10:37:03;;;;;;;21.50;19.90;;;;;;;-141.02;100.00;43546.31;5113480;28;20193;-73
2023/12/18 10:39:33;;;;;;;22.83;21.03;;;;;;;-141.02;100.00;43292.88;5113413;28;20303;-73
2023/12/18 10:42:06;;;;;;;22.60;20.80;;;;;;;-141.02;100.00;43534.78;5113598;28;20280;-74
2023/12/18 10:44:35;;;;;;;24.23;22.13;;;;;;;-141.02;100.00;43346.63;5112818;28;20276;-74
2023/12/18 10:47:04;;;;;;;22.73;20.83;;;;;;;-141.02;100.00;43492.56;5113301;28;20273;-75
2023/12/18 10:49:33;;;;;;;21.87;20.07;;;;;;;-141.02;100.00;43500.25;5113255;28;20291;-75
2023/12/18 10:52:02;;;;;;;24.77;22.60;;;;;;;-141.02;100.00;43530.97;5113206;28;20276;-76
2023/12/18 10:54:29;;;;;;;25.03;22.90;;;;;;;-141.02;100.00;43381.19;5113269;28;20236;-77
2023/12/18 10:56:58;;;;;;;24.03;22.03;;;;;;;-141.02;100.00;43433.03;5112908;28;20256;-78
2023/12/18 10:59:29;;;;;;;25.70;23.50;;;;;;;-141.02;100.00;43325.50;5112685;28;20205;-79
2023/12/18 11:01:57;;;;;;;26.30;24.30;;;;;;;-141.02;100.00;43678.81;5113172;28;20620;-79
2023/12/18 11:04:25;;;;;;;28.40;26.00;;;;;;;-141.02;100.00;43312.06;5112678;28;20653;-73